sensor_id;sensor_type;location;lat;lon;timestamp;pressure;altitude;pressure_sealevel;temperature;humidity
76594;BME280;65482;50.240;14.302;2023-03-13T00:02:09;99020.81;;;7.69;68.72
76594;BME280;65482;50.240;14.302;2023-03-13T00:04:35;99021.88;;;7.76;68.46
76594;BME280;65482;50.240;14.302;2023-03-13T00:07:00;99017.44;;;7.77;68.55
76594;BME280;65482;50.240;14.302;2023-03-13T00:09:26;99014.16;;;7.75;68.81
76594;BME280;65482;50.240;14.302;2023-03-13T00:11:51;99011.38;;;7.76;69.07
76594;BME280;65482;50.240;14.302;2023-03-13T00:14:18;99004.00;;;7.80;68.80
76594;BME280;65482;50.240;14.302;2023-03-13T00:16:43;99002.19;;;7.81;68.49
76594;BME280;65482;50.240;14.302;2023-03-13T00:19:09;98994.19;;;7.82;68.35
76594;BME280;65482;50.240;14.302;2023-03-13T00:21:35;98997.47;;;7.84;68.66
76594;BME280;65482;50.240;14.302;2023-03-13T00:24:06;99002.41;;;7.87;68.48
76594;BME280;65482;50.240;14.302;2023-03-13T00:26:33;99002.09;;;7.90;68.63
76594;BME280;65482;50.240;14.302;2023-03-13T00:28:59;98995.50;;;7.86;68.46
76594;BME280;65482;50.240;14.302;2023-03-13T00:31:29;98996.03;;;7.90;68.24
76594;BME280;65482;50.240;14.302;2023-03-13T00:34:00;98988.34;;;7.96;67.79
76594;BME280;65482;50.240;14.302;2023-03-13T00:36:28;98992.44;;;7.99;67.54
76594;BME280;65482;50.240;14.302;2023-03-13T00:38:55;98986.22;;;8.00;67.83
76594;BME280;65482;50.240;14.302;2023-03-13T00:41:26;98994.59;;;8.04;67.67
76594;BME280;65482;50.240;14.302;2023-03-13T00:43:53;98979.84;;;8.03;67.87
76594;BME280;65482;50.240;14.302;2023-03-13T00:46:20;98982.75;;;8.00;67.45
76594;BME280;65482;50.240;14.302;2023-03-13T00:48:47;98982.31;;;8.04;67.48
76594;BME280;65482;50.240;14.302;2023-03-13T00:51:14;98978.72;;;8.13;67.05
76594;BME280;65482;50.240;14.302;2023-03-13T00:53:41;98973.97;;;8.17;66.85
76594;BME280;65482;50.240;14.302;2023-03-13T00:56:09;98972.81;;;8.11;67.06
76594;BME280;65482;50.240;14.302;2023-03-13T00:58:37;98976.28;;;8.12;66.64
76594;BME280;65482;50.240;14.302;2023-03-13T01:01:20;98971.84;;;8.12;67.05
76594;BME280;65482;50.240;14.302;2023-03-13T01:03:50;98969.50;;;8.09;67.00
76594;BME280;65482;50.240;14.302;2023-03-13T01:06:18;98972.31;;;8.08;67.02
76594;BME280;65482;50.240;14.302;2023-03-13T01:08:45;98966.06;;;8.09;67.01
76594;BME280;65482;50.240;14.302;2023-03-13T01:11:13;98972.47;;;8.06;66.34
76594;BME280;65482;50.240;14.302;2023-03-13T01:13:40;98977.88;;;8.05;66.80
76594;BME280;65482;50.240;14.302;2023-03-13T01:16:07;98977.84;;;7.96;66.72
76594;BME280;65482;50.240;14.302;2023-03-13T01:18:35;98980.31;;;7.98;66.62
76594;BME280;65482;50.240;14.302;2023-03-13T01:21:01;98972.25;;;8.00;66.76
76594;BME280;65482;50.240;14.302;2023-03-13T01:23:27;98970.63;;;7.99;66.98
76594;BME280;65482;50.240;14.302;2023-03-13T01:25:55;98975.91;;;8.07;66.60
76594;BME280;65482;50.240;14.302;2023-03-13T01:28:22;98984.63;;;8.15;66.39
76594;BME280;65482;50.240;14.302;2023-03-13T01:30:48;98976.59;;;8.17;66.48
76594;BME280;65482;50.240;14.302;2023-03-13T01:33:14;98983.97;;;8.13;66.46
76594;BME280;65482;50.240;14.302;2023-03-13T01:35:39;98966.72;;;8.11;66.73
76594;BME280;65482;50.240;14.302;2023-03-13T01:38:05;98965.75;;;8.12;66.75
76594;BME280;65482;50.240;14.302;2023-03-13T01:40:38;98958.69;;;8.12;67.15
76594;BME280;65482;50.240;14.302;2023-03-13T01:43:15;98958.88;;;8.19;66.56
76594;BME280;65482;50.240;14.302;2023-03-13T01:45:53;98954.13;;;8.23;66.75
76594;BME280;65482;50.240;14.302;2023-03-13T01:48:24;98953.00;;;8.33;66.56
76594;BME280;65482;50.240;14.302;2023-03-13T01:50:53;98945.28;;;8.24;66.92
76594;BME280;65482;50.240;14.302;2023-03-13T01:53:19;98944.78;;;8.20;66.86
76594;BME280;65482;50.240;14.302;2023-03-13T01:55:45;98933.78;;;8.25;66.50
76594;BME280;65482;50.240;14.302;2023-03-13T01:58:11;98933.75;;;8.16;66.74
76594;BME280;65482;50.240;14.302;2023-03-13T02:00:38;98931.88;;;8.01;67.13
76594;BME280;65482;50.240;14.302;2023-03-13T02:03:10;98936.97;;;7.94;67.41
76594;BME280;65482;50.240;14.302;2023-03-13T02:05:37;98947.47;;;7.94;67.17
76594;BME280;65482;50.240;14.302;2023-03-13T02:08:11;98940.41;;;7.94;67.18
76594;BME280;65482;50.240;14.302;2023-03-13T02:10:52;98945.88;;;7.75;67.83
76594;BME280;65482;50.240;14.302;2023-03-13T02:13:19;98945.22;;;7.73;67.85
76594;BME280;65482;50.240;14.302;2023-03-13T02:15:46;98941.19;;;7.87;67.52
76594;BME280;65482;50.240;14.302;2023-03-13T02:18:12;98941.03;;;7.88;67.50
76594;BME280;65482;50.240;14.302;2023-03-13T02:20:38;98935.41;;;7.83;67.54
76594;BME280;65482;50.240;14.302;2023-03-13T02:23:24;98927.09;;;7.88;67.97
76594;BME280;65482;50.240;14.302;2023-03-13T02:25:52;98922.50;;;7.90;67.48
76594;BME280;65482;50.240;14.302;2023-03-13T02:28:20;98932.94;;;7.82;67.60
76594;BME280;65482;50.240;14.302;2023-03-13T02:30:49;98933.56;;;7.75;67.86
76594;BME280;65482;50.240;14.302;2023-03-13T02:33:17;98936.31;;;7.66;68.24
76594;BME280;65482;50.240;14.302;2023-03-13T02:35:44;98927.09;;;7.62;68.24
76594;BME280;65482;50.240;14.302;2023-03-13T02:38:14;98938.06;;;7.57;68.79
76594;BME280;65482;50.240;14.302;2023-03-13T02:40:43;98937.22;;;7.48;68.69
76594;BME280;65482;50.240;14.302;2023-03-13T02:43:14;98930.97;;;7.49;68.80
76594;BME280;65482;50.240;14.302;2023-03-13T02:45:41;98930.00;;;7.50;68.67
76594;BME280;65482;50.240;14.302;2023-03-13T02:48:07;98926.25;;;7.53;68.64
76594;BME280;65482;50.240;14.302;2023-03-13T02:50:33;98917.69;;;7.51;68.85
76594;BME280;65482;50.240;14.302;2023-03-13T02:53:04;98916.72;;;7.52;68.86
76594;BME280;65482;50.240;14.302;2023-03-13T02:55:35;98910.34;;;7.54;68.37
76594;BME280;65482;50.240;14.302;2023-03-13T02:58:04;98918.22;;;7.54;68.73
76594;BME280;65482;50.240;14.302;2023-03-13T03:00:30;98913.75;;;7.47;68.82
76594;BME280;65482;50.240;14.302;2023-03-13T03:02:56;98918.66;;;7.50;68.92
76594;BME280;65482;50.240;14.302;2023-03-13T03:05:22;98914.41;;;7.49;69.44
76594;BME280;65482;50.240;14.302;2023-03-13T03:07:49;98908.53;;;7.55;68.96
76594;BME280;65482;50.240;14.302;2023-03-13T03:10:16;98909.91;;;7.67;68.56
76594;BME280;65482;50.240;14.302;2023-03-13T03:12:42;98908.28;;;7.66;68.58
76594;BME280;65482;50.240;14.302;2023-03-13T03:15:08;98898.75;;;7.65;68.78
76594;BME280;65482;50.240;14.302;2023-03-13T03:17:34;98900.59;;;7.73;68.36
76594;BME280;65482;50.240;14.302;2023-03-13T03:19:59;98899.41;;;7.67;68.57
76594;BME280;65482;50.240;14.302;2023-03-13T03:22:25;98901.22;;;7.67;68.31
76594;BME280;65482;50.240;14.302;2023-03-13T03:24:51;98908.94;;;7.68;68.23
76594;BME280;65482;50.240;14.302;2023-03-13T03:27:17;98903.22;;;7.73;68.16
76594;BME280;65482;50.240;14.302;2023-03-13T03:29:42;98892.22;;;7.77;68.05
76594;BME280;65482;50.240;14.302;2023-03-13T03:32:08;98895.03;;;7.76;68.11
76594;BME280;65482;50.240;14.302;2023-03-13T03:34:33;98893.53;;;7.73;68.33
76594;BME280;65482;50.240;14.302;2023-03-13T03:36:59;98895.88;;;7.85;67.82
76594;BME280;65482;50.240;14.302;2023-03-13T03:39:25;98889.44;;;7.79;67.94
76594;BME280;65482;50.240;14.302;2023-03-13T03:41:51;98886.41;;;7.92;67.41
76594;BME280;65482;50.240;14.302;2023-03-13T03:44:16;98895.19;;;7.74;67.76
76594;BME280;65482;50.240;14.302;2023-03-13T03:46:42;98894.72;;;7.87;67.63
76594;BME280;65482;50.240;14.302;2023-03-13T03:49:07;98891.28;;;7.87;67.51
76594;BME280;65482;50.240;14.302;2023-03-13T03:51:34;98880.81;;;7.95;66.99
76594;BME280;65482;50.240;14.302;2023-03-13T03:53:59;98882.63;;;7.94;67.12
76594;BME280;65482;50.240;14.302;2023-03-13T03:56:25;98893.50;;;8.08;66.35
76594;BME280;65482;50.240;14.302;2023-03-13T03:58:50;98883.78;;;7.92;66.70
76594;BME280;65482;50.240;14.302;2023-03-13T04:01:16;98881.09;;;7.84;67.12
76594;BME280;65482;50.240;14.302;2023-03-13T04:03:42;98876.19;;;7.89;67.24
76594;BME280;65482;50.240;14.302;2023-03-13T04:06:08;98870.28;;;7.87;67.10
76594;BME280;65482;50.240;14.302;2023-03-13T04:08:34;98872.78;;;7.96;66.52
76594;BME280;65482;50.240;14.302;2023-03-13T04:11:00;98869.81;;;7.91;66.70
76594;BME280;65482;50.240;14.302;2023-03-13T04:13:26;98878.97;;;7.87;67.12
76594;BME280;65482;50.240;14.302;2023-03-13T04:15:52;98867.84;;;7.93;66.91
76594;BME280;65482;50.240;14.302;2023-03-13T04:18:17;98863.09;;;7.97;66.53
76594;BME280;65482;50.240;14.302;2023-03-13T04:20:43;98868.53;;;8.04;66.56
76594;BME280;65482;50.240;14.302;2023-03-13T04:23:09;98862.59;;;7.93;66.64
76594;BME280;65482;50.240;14.302;2023-03-13T04:25:35;98875.22;;;7.90;66.85
76594;BME280;65482;50.240;14.302;2023-03-13T04:28:00;98871.31;;;7.94;66.74
76594;BME280;65482;50.240;14.302;2023-03-13T04:30:27;98871.47;;;7.92;66.62
76594;BME280;65482;50.240;14.302;2023-03-13T04:32:53;98853.22;;;7.91;66.50
76594;BME280;65482;50.240;14.302;2023-03-13T04:35:18;98858.63;;;7.89;66.92
76594;BME280;65482;50.240;14.302;2023-03-13T04:37:44;98852.06;;;7.85;67.08
76594;BME280;65482;50.240;14.302;2023-03-13T04:40:11;98848.13;;;7.89;66.65
76594;BME280;65482;50.240;14.302;2023-03-13T04:42:38;98843.53;;;7.91;66.90
76594;BME280;65482;50.240;14.302;2023-03-13T04:45:04;98856.19;;;7.88;66.86
76594;BME280;65482;50.240;14.302;2023-03-13T04:47:30;98843.72;;;7.90;66.89
76594;BME280;65482;50.240;14.302;2023-03-13T04:49:56;98843.91;;;7.96;66.41
76594;BME280;65482;50.240;14.302;2023-03-13T04:52:21;98845.72;;;7.96;66.72
76594;BME280;65482;50.240;14.302;2023-03-13T04:54:47;98836.31;;;7.93;66.88
76594;BME280;65482;50.240;14.302;2023-03-13T04:57:15;98833.56;;;8.03;66.45
76594;BME280;65482;50.240;14.302;2023-03-13T04:59:41;98825.03;;;8.09;66.29
76594;BME280;65482;50.240;14.302;2023-03-13T05:02:10;98821.59;;;8.01;66.15
76594;BME280;65482;50.240;14.302;2023-03-13T05:04:37;98818.44;;;7.97;66.65
76594;BME280;65482;50.240;14.302;2023-03-13T05:07:02;98817.28;;;7.91;66.25
76594;BME280;65482;50.240;14.302;2023-03-13T05:09:28;98807.78;;;7.90;66.43
76594;BME280;65482;50.240;14.302;2023-03-13T05:11:54;98807.94;;;7.89;66.57
76594;BME280;65482;50.240;14.302;2023-03-13T05:14:20;98809.59;;;7.90;66.87
76594;BME280;65482;50.240;14.302;2023-03-13T05:16:45;98808.94;;;7.96;66.48
76594;BME280;65482;50.240;14.302;2023-03-13T05:19:11;98813.34;;;7.95;66.22
76594;BME280;65482;50.240;14.302;2023-03-13T05:21:37;98807.78;;;7.99;66.56
76594;BME280;65482;50.240;14.302;2023-03-13T05:24:03;98801.53;;;8.00;66.56
76594;BME280;65482;50.240;14.302;2023-03-13T05:26:28;98791.38;;;8.05;66.09
76594;BME280;65482;50.240;14.302;2023-03-13T05:28:54;98785.31;;;8.12;65.99
76594;BME280;65482;50.240;14.302;2023-03-13T05:31:20;98775.78;;;8.11;66.26
76594;BME280;65482;50.240;14.302;2023-03-13T05:33:46;98765.94;;;8.05;66.17
76594;BME280;65482;50.240;14.302;2023-03-13T05:36:11;98771.69;;;8.17;66.29
76594;BME280;65482;50.240;14.302;2023-03-13T05:38:37;98757.09;;;8.23;65.25
76594;BME280;65482;50.240;14.302;2023-03-13T05:41:03;98760.72;;;8.30;65.62
76594;BME280;65482;50.240;14.302;2023-03-13T05:43:29;98759.72;;;8.31;65.25
76594;BME280;65482;50.240;14.302;2023-03-13T05:45:54;98752.16;;;8.36;65.07
76594;BME280;65482;50.240;14.302;2023-03-13T05:48:20;98741.00;;;8.34;65.06
76594;BME280;65482;50.240;14.302;2023-03-13T05:50:45;98737.72;;;8.40;64.86
76594;BME280;65482;50.240;14.302;2023-03-13T05:53:11;98738.53;;;8.41;64.91
76594;BME280;65482;50.240;14.302;2023-03-13T05:55:37;98736.72;;;8.49;64.37
76594;BME280;65482;50.240;14.302;2023-03-13T05:58:03;98732.97;;;8.44;64.61
76594;BME280;65482;50.240;14.302;2023-03-13T06:00:28;98734.59;;;8.45;64.65
76594;BME280;65482;50.240;14.302;2023-03-13T06:02:54;98733.28;;;8.49;64.43
76594;BME280;65482;50.240;14.302;2023-03-13T06:05:20;98733.78;;;8.52;64.11
76594;BME280;65482;50.240;14.302;2023-03-13T06:07:45;98740.19;;;8.58;63.86
76594;BME280;65482;50.240;14.302;2023-03-13T06:10:11;98735.91;;;8.57;64.16
76594;BME280;65482;50.240;14.302;2023-03-13T06:12:37;98723.75;;;8.64;63.81
76594;BME280;65482;50.240;14.302;2023-03-13T06:15:03;98725.56;;;8.64;64.10
76594;BME280;65482;50.240;14.302;2023-03-13T06:17:40;98722.41;;;8.68;63.73
76594;BME280;65482;50.240;14.302;2023-03-13T06:20:06;98715.03;;;8.72;63.62
76594;BME280;65482;50.240;14.302;2023-03-13T06:22:41;98714.50;;;8.76;63.50
76594;BME280;65482;50.240;14.302;2023-03-13T06:25:07;98703.66;;;8.80;63.33
76594;BME280;65482;50.240;14.302;2023-03-13T06:27:33;98694.09;;;8.87;63.32
76594;BME280;65482;50.240;14.302;2023-03-13T06:29:59;98695.88;;;8.94;63.33
76594;BME280;65482;50.240;14.302;2023-03-13T06:32:27;98702.47;;;8.90;62.91
76594;BME280;65482;50.240;14.302;2023-03-13T06:34:54;98704.59;;;8.95;62.94
76594;BME280;65482;50.240;14.302;2023-03-13T06:37:20;98710.66;;;9.04;63.00
76594;BME280;65482;50.240;14.302;2023-03-13T06:39:46;98702.41;;;9.07;62.74
76594;BME280;65482;50.240;14.302;2023-03-13T06:54:40;98700.13;;;9.66;61.60
76594;BME280;65482;50.240;14.302;2023-03-13T07:22:27;98669.28;;;10.21;59.45
76594;BME280;65482;50.240;14.302;2023-03-13T07:41:52;98645.88;;;10.41;58.97
76594;BME280;65482;50.240;14.302;2023-03-13T08:01:53;98618.25;;;10.67;57.86
76594;BME280;65482;50.240;14.302;2023-03-13T08:23:00;98591.59;;;11.13;56.91
76594;BME280;65482;50.240;14.302;2023-03-13T08:43:24;98564.91;;;11.44;56.41
76594;BME280;65482;50.240;14.302;2023-03-13T08:59:16;98551.56;;;12.02;55.18
76594;BME280;65482;50.240;14.302;2023-03-13T09:47:25;98520.34;;;12.19;58.57
76594;BME280;65482;50.240;14.302;2023-03-13T10:31:35;98500.13;;;13.14;57.07
76594;BME280;65482;50.240;14.302;2023-03-13T10:42:51;98496.81;;;12.92;57.76
76594;BME280;65482;50.240;14.302;2023-03-13T10:45:49;98507.00;;;12.89;57.59
76594;BME280;65482;50.240;14.302;2023-03-13T10:48:47;98517.19;;;12.92;58.01
76594;BME280;65482;50.240;14.302;2023-03-13T10:51:24;98508.41;;;12.85;58.12
76594;BME280;65482;50.240;14.302;2023-03-13T10:54:14;98504.75;;;12.86;58.08
76594;BME280;65482;50.240;14.302;2023-03-13T11:07:21;98491.41;;;13.54;56.75
76594;BME280;65482;50.240;14.302;2023-03-13T11:10:01;98480.41;;;13.70;56.29
76594;BME280;65482;50.240;14.302;2023-03-13T11:12:49;98474.69;;;13.87;55.99
76594;BME280;65482;50.240;14.302;2023-03-13T11:24:17;98453.88;;;14.49;54.15
76594;BME280;65482;50.240;14.302;2023-03-13T11:31:12;98443.06;;;14.89;53.71
76594;BME280;65482;50.240;14.302;2023-03-13T11:37:20;98445.97;;;14.81;53.57
76594;BME280;65482;50.240;14.302;2023-03-13T11:40:46;98443.81;;;14.64;54.23
76594;BME280;65482;50.240;14.302;2023-03-13T11:43:51;98437.31;;;14.53;54.10
76594;BME280;65482;50.240;14.302;2023-03-13T12:02:49;98441.97;;;14.13;55.76
76594;BME280;65482;50.240;14.302;2023-03-13T12:13:31;98417.31;;;14.06;56.31
76594;BME280;65482;50.240;14.302;2023-03-13T12:16:38;98430.97;;;14.09;56.29
76594;BME280;65482;50.240;14.302;2023-03-13T12:19:51;98417.25;;;14.19;56.12
76594;BME280;65482;50.240;14.302;2023-03-13T12:25:31;98419.78;;;14.46;55.61
76594;BME280;65482;50.240;14.302;2023-03-13T12:32:08;98405.22;;;14.94;54.62
76594;BME280;65482;50.240;14.302;2023-03-13T12:35:27;98407.78;;;15.07;54.27
76594;BME280;65482;50.240;14.302;2023-03-13T12:38:30;98401.41;;;15.15;53.76
76594;BME280;65482;50.240;14.302;2023-03-13T12:41:46;98405.63;;;15.22;53.93
76594;BME280;65482;50.240;14.302;2023-03-13T12:44:32;98399.16;;;15.37;53.60
76594;BME280;65482;50.240;14.302;2023-03-13T13:05:38;98406.34;;;14.79;54.96
76594;BME280;65482;50.240;14.302;2023-03-13T13:09:12;98406.94;;;14.81;54.65
76594;BME280;65482;50.240;14.302;2023-03-13T13:12:31;98408.81;;;14.81;54.80
76594;BME280;65482;50.240;14.302;2023-03-13T13:28:36;98387.09;;;14.52;55.48
76594;BME280;65482;50.240;14.302;2023-03-13T13:31:44;98396.50;;;14.48;55.62
76594;BME280;65482;50.240;14.302;2023-03-13T13:34:53;98392.41;;;14.59;55.14
76594;BME280;65482;50.240;14.302;2023-03-13T13:38:00;98390.25;;;14.74;54.91
76594;BME280;65482;50.240;14.302;2023-03-13T13:44:21;98389.94;;;14.89;54.42
76594;BME280;65482;50.240;14.302;2023-03-13T13:47:23;98379.94;;;15.16;53.99
76594;BME280;65482;50.240;14.302;2023-03-13T13:50:45;98375.63;;;15.40;53.71
76594;BME280;65482;50.240;14.302;2023-03-13T13:57:20;98383.50;;;15.90;52.50
76594;BME280;65482;50.240;14.302;2023-03-13T14:03:53;98374.91;;;16.07;51.67
76594;BME280;65482;50.240;14.302;2023-03-13T14:06:50;98381.03;;;16.07;52.00
76594;BME280;65482;50.240;14.302;2023-03-13T14:09:51;98371.59;;;16.12;51.94
76594;BME280;65482;50.240;14.302;2023-03-13T14:12:28;98368.47;;;16.15;51.77
76594;BME280;65482;50.240;14.302;2023-03-13T14:15:27;98364.63;;;16.10;51.62
76594;BME280;65482;50.240;14.302;2023-03-13T14:26:59;98349.75;;;15.73;52.62
76594;BME280;65482;50.240;14.302;2023-03-13T14:29:32;98333.28;;;15.64;52.56
76594;BME280;65482;50.240;14.302;2023-03-13T14:32:10;98336.94;;;15.63;52.87
76594;BME280;65482;50.240;14.302;2023-03-13T14:42:09;98322.63;;;15.45;53.30
76594;BME280;65482;50.240;14.302;2023-03-13T14:48:44;98300.94;;;15.30;53.77
76594;BME280;65482;50.240;14.302;2023-03-13T14:52:05;98302.34;;;15.32;53.86
76594;BME280;65482;50.240;14.302;2023-03-13T14:58:43;98276.22;;;15.48;53.04
76594;BME280;65482;50.240;14.302;2023-03-13T15:01:23;98264.53;;;15.49;53.21
76594;BME280;65482;50.240;14.302;2023-03-13T15:04:04;98269.03;;;15.48;52.87
76594;BME280;65482;50.240;14.302;2023-03-13T15:06:30;98270.53;;;15.44;53.14
76594;BME280;65482;50.240;14.302;2023-03-13T15:09:25;98251.13;;;15.44;52.94
76594;BME280;65482;50.240;14.302;2023-03-13T15:11:58;98260.91;;;15.43;53.10
76594;BME280;65482;50.240;14.302;2023-03-13T15:14:33;98255.09;;;15.35;53.77
76594;BME280;65482;50.240;14.302;2023-03-13T15:16:59;98250.69;;;15.28;53.71
76594;BME280;65482;50.240;14.302;2023-03-13T15:19:25;98243.94;;;15.26;53.60
76594;BME280;65482;50.240;14.302;2023-03-13T15:21:51;98240.78;;;15.17;53.57
76594;BME280;65482;50.240;14.302;2023-03-13T15:24:16;98236.66;;;15.03;54.00
76594;BME280;65482;50.240;14.302;2023-03-13T15:26:43;98236.88;;;15.01;54.23
76594;BME280;65482;50.240;14.302;2023-03-13T15:29:09;98250.44;;;14.93;54.28
76594;BME280;65482;50.240;14.302;2023-03-13T15:31:35;98253.84;;;15.00;54.01
76594;BME280;65482;50.240;14.302;2023-03-13T15:34:02;98244.91;;;14.95;54.37
76594;BME280;65482;50.240;14.302;2023-03-13T15:36:29;98234.94;;;14.90;54.96
76594;BME280;65482;50.240;14.302;2023-03-13T15:38:55;98244.44;;;14.98;54.42
76594;BME280;65482;50.240;14.302;2023-03-13T15:41:23;98253.09;;;14.93;55.05
76594;BME280;65482;50.240;14.302;2023-03-13T15:43:50;98240.91;;;14.85;54.71
76594;BME280;65482;50.240;14.302;2023-03-13T15:46:18;98224.75;;;14.87;54.82
76594;BME280;65482;50.240;14.302;2023-03-13T15:48:44;98217.22;;;14.84;54.66
76594;BME280;65482;50.240;14.302;2023-03-13T15:51:12;98220.72;;;14.84;54.58
76594;BME280;65482;50.240;14.302;2023-03-13T15:53:40;98224.75;;;14.87;54.58
76594;BME280;65482;50.240;14.302;2023-03-13T15:56:15;98220.97;;;14.76;55.05
76594;BME280;65482;50.240;14.302;2023-03-13T15:58:41;98224.38;;;14.83;55.04
76594;BME280;65482;50.240;14.302;2023-03-13T16:01:09;98208.34;;;14.71;55.29
76594;BME280;65482;50.240;14.302;2023-03-13T16:03:35;98213.94;;;14.63;55.29
76594;BME280;65482;50.240;14.302;2023-03-13T16:06:04;98212.09;;;14.64;55.25
76594;BME280;65482;50.240;14.302;2023-03-13T16:08:34;98194.00;;;14.54;55.53
76594;BME280;65482;50.240;14.302;2023-03-13T16:10:59;98192.22;;;14.48;55.74
76594;BME280;65482;50.240;14.302;2023-03-13T16:13:26;98187.78;;;14.42;55.56
76594;BME280;65482;50.240;14.302;2023-03-13T16:15:51;98184.00;;;14.31;56.18
76594;BME280;65482;50.240;14.302;2023-03-13T16:18:22;98186.88;;;14.29;55.97
76594;BME280;65482;50.240;14.302;2023-03-13T16:20:50;98179.84;;;14.17;56.50
76594;BME280;65482;50.240;14.302;2023-03-13T16:23:15;98170.84;;;14.18;56.57
76594;BME280;65482;50.240;14.302;2023-03-13T16:25:42;98183.09;;;14.19;56.54
76594;BME280;65482;50.240;14.302;2023-03-13T16:28:12;98176.81;;;14.13;56.80
76594;BME280;65482;50.240;14.302;2023-03-13T16:30:39;98170.53;;;14.07;56.76
76594;BME280;65482;50.240;14.302;2023-03-13T16:33:12;98163.81;;;14.05;56.88
76594;BME280;65482;50.240;14.302;2023-03-13T16:35:38;98166.09;;;14.01;56.99
76594;BME280;65482;50.240;14.302;2023-03-13T16:38:05;98168.63;;;13.89;57.63
76594;BME280;65482;50.240;14.302;2023-03-13T16:40:36;98164.78;;;13.85;57.81
76594;BME280;65482;50.240;14.302;2023-03-13T16:43:01;98149.75;;;13.72;57.84
76594;BME280;65482;50.240;14.302;2023-03-13T16:45:27;98151.44;;;13.67;58.39
76594;BME280;65482;50.240;14.302;2023-03-13T16:47:53;98159.41;;;13.67;58.00
76594;BME280;65482;50.240;14.302;2023-03-13T16:50:24;98155.56;;;13.63;58.16
76594;BME280;65482;50.240;14.302;2023-03-13T16:52:51;98154.75;;;13.56;58.38
76594;BME280;65482;50.240;14.302;2023-03-13T16:55:18;98153.16;;;13.48;58.70
76594;BME280;65482;50.240;14.302;2023-03-13T16:57:44;98154.41;;;13.45;58.76
76594;BME280;65482;50.240;14.302;2023-03-13T17:00:15;98148.13;;;13.40;58.95
76594;BME280;65482;50.240;14.302;2023-03-13T17:02:43;98142.06;;;13.26;59.12
76594;BME280;65482;50.240;14.302;2023-03-13T17:05:10;98146.53;;;13.25;59.50
76594;BME280;65482;50.240;14.302;2023-03-13T17:07:41;98132.34;;;13.13;59.59
76594;BME280;65482;50.240;14.302;2023-03-13T17:10:21;98137.84;;;13.05;59.98
76594;BME280;65482;50.240;14.302;2023-03-13T17:12:47;98130.56;;;13.00;59.96
76594;BME280;65482;50.240;14.302;2023-03-13T17:15:13;98129.34;;;12.96;60.09
76594;BME280;65482;50.240;14.302;2023-03-13T17:17:39;98120.00;;;12.87;60.67
76594;BME280;65482;50.240;14.302;2023-03-13T17:20:06;98109.25;;;12.82;60.47
76594;BME280;65482;50.240;14.302;2023-03-13T17:22:38;98108.06;;;12.78;60.53
76594;BME280;65482;50.240;14.302;2023-03-13T17:25:04;98106.00;;;12.73;60.70
76594;BME280;65482;50.240;14.302;2023-03-13T17:27:30;98092.56;;;12.74;60.57
76594;BME280;65482;50.240;14.302;2023-03-13T17:29:56;98097.69;;;12.69;60.62
76594;BME280;65482;50.240;14.302;2023-03-13T17:32:21;98094.03;;;12.70;60.89
76594;BME280;65482;50.240;14.302;2023-03-13T17:34:50;98088.31;;;12.67;60.53
76594;BME280;65482;50.240;14.302;2023-03-13T17:37:18;98090.41;;;12.58;60.77
76594;BME280;65482;50.240;14.302;2023-03-13T17:39:46;98100.19;;;12.58;60.86
76594;BME280;65482;50.240;14.302;2023-03-13T17:42:12;98095.50;;;12.60;60.82
76594;BME280;65482;50.240;14.302;2023-03-13T17:44:41;98094.06;;;12.57;61.03
76594;BME280;65482;50.240;14.302;2023-03-13T17:47:45;98097.09;;;12.61;60.36
76594;BME280;65482;50.240;14.302;2023-03-13T17:50:49;98084.91;;;12.53;60.66
76594;BME280;65482;50.240;14.302;2023-03-13T17:53:37;98084.31;;;12.58;60.31
76594;BME280;65482;50.240;14.302;2023-03-13T17:56:26;98078.41;;;12.56;60.39
76594;BME280;65482;50.240;14.302;2023-03-13T17:59:10;98079.63;;;12.60;60.37
76594;BME280;65482;50.240;14.302;2023-03-13T18:02:03;98075.34;;;12.59;59.86
76594;BME280;65482;50.240;14.302;2023-03-13T18:04:41;98090.19;;;12.53;60.40
76594;BME280;65482;50.240;14.302;2023-03-13T18:07:28;98082.50;;;12.45;60.69
76594;BME280;65482;50.240;14.302;2023-03-13T18:10:13;98081.88;;;12.43;60.90
76594;BME280;65482;50.240;14.302;2023-03-13T18:12:54;98071.13;;;12.38;60.69
76594;BME280;65482;50.240;14.302;2023-03-13T18:15:56;98074.63;;;12.31;60.94
76594;BME280;65482;50.240;14.302;2023-03-13T18:18:34;98068.50;;;12.31;61.01
76594;BME280;65482;50.240;14.302;2023-03-13T18:21:14;98067.88;;;12.29;61.08
76594;BME280;65482;50.240;14.302;2023-03-13T18:23:49;98063.66;;;12.14;61.41
76594;BME280;65482;50.240;14.302;2023-03-13T18:26:49;98054.50;;;12.10;61.42
76594;BME280;65482;50.240;14.302;2023-03-13T18:29:25;98049.44;;;12.02;61.36
76594;BME280;65482;50.240;14.302;2023-03-13T18:31:55;98035.81;;;11.99;61.83
76594;BME280;65482;50.240;14.302;2023-03-13T18:34:50;98033.81;;;11.94;61.78
76594;BME280;65482;50.240;14.302;2023-03-13T18:37:43;98034.59;;;11.94;61.92
76594;BME280;65482;50.240;14.302;2023-03-13T18:40:58;98029.94;;;11.90;62.00
76594;BME280;65482;50.240;14.302;2023-03-13T18:43:47;98028.28;;;11.82;62.16
76594;BME280;65482;50.240;14.302;2023-03-13T18:47:19;98028.50;;;11.74;62.13
76594;BME280;65482;50.240;14.302;2023-03-13T18:53:12;98028.50;;;11.54;63.25
76594;BME280;65482;50.240;14.302;2023-03-13T18:55:46;98015.72;;;11.44;64.03
76594;BME280;65482;50.240;14.302;2023-03-13T18:58:47;98012.66;;;11.47;63.53
76594;BME280;65482;50.240;14.302;2023-03-13T19:01:33;97995.00;;;11.54;63.42
76594;BME280;65482;50.240;14.302;2023-03-13T19:04:17;97997.81;;;11.73;62.62
76594;BME280;65482;50.240;14.302;2023-03-13T19:07:23;98005.13;;;11.71;62.50
76594;BME280;65482;50.240;14.302;2023-03-13T19:13:23;97998.25;;;11.70;62.72
76594;BME280;65482;50.240;14.302;2023-03-13T19:16:20;97999.03;;;11.64;62.90
76594;BME280;65482;50.240;14.302;2023-03-13T19:19:25;97991.75;;;11.52;62.96